Startpagina
METAR-TAF:

METAR-TAF

Vliegvelden :

Nationaal park Kruger, Zuid-Afrika

breedte: 25-23-00S, lengte: 31-06-20E, hoogte: 862 m

Actueel weer

Dit bericht is 1 uur en het 6 minuten geleden gemaakt, om 09:00 UTC
Wind 7 kt uit het westzuidwesten
Temperatuur 27°C
Vochtigheid 24%
Druk 1025 hPa
Zicht 10 km of meer
Weinig wolken op 2500 ft

METAR: FAKN 190900Z 24007KT 9999 FEW025 27/05 Q1025 NOSIG

Tijdstip: 12:06 (10:06 UTC)

Verwachting

Dit bericht is 1 uur en het 6 minuten geleden gemaakt, om 09:00 UTC
Verwachting geldig van 19 om 10 UTC tot 19 om 18 UTC
Wind 3 kt uit variabele richting
Zicht 10 km of meer
geen wolken onder 1500 m en geen cumulonimbus
Wijzigt naar
van 19 om 13 UTC tot 19 om 15 UTC
Wind 8 kt uit het noordnoordoosten
Van 19 om 1800 UTC
Wind 8 kt uit het oosten
Zicht 10 km of meer
Gebroken wolken op 2500 ft

TAF: FAKN 190900Z 1910/1918 VRB03KT CAVOK TX31/1913Z TN19/1918Z BECMG 1913/1915 03008KT FM191800 10008KT 9999 BKN025

Waarnemingen en weersverwachtingen van meer dan 4000 vliegvelden (METAR en TAF).

De beschikbare stations zijn de gele en rode punten op de kaart.

Ga met uw muis naar het station om de naam te zien.

Klik dan om waarnemingen en weersverwachtingen te zien.

kaart wijzigen: klik op de groene knoppen met een zwart kruis om in te zoomen, op de groene knop met een streepje om uit te zoomen of op de groene pijlen voor aangrenzende kaarten.


METAR-TAF: